createdAt,value
2016-09-13T00:00:44.489Z,0
2016-09-13T00:01:44.456Z,0
2016-09-13T00:02:44.726Z,0
2016-09-13T00:03:44.394Z,0
2016-09-13T00:04:44.364Z,0
2016-09-13T00:05:44.631Z,0
2016-09-13T00:06:44.298Z,0
2016-09-13T00:07:44.267Z,0
2016-09-13T00:08:43.932Z,0
2016-09-13T00:09:43.914Z,0
2016-09-13T00:10:44.169Z,0
2016-09-13T00:11:44.137Z,0
2016-09-13T00:12:44.108Z,0
2016-09-13T00:13:43.777Z,0
2016-09-13T00:14:44.351Z,0
2016-09-13T00:15:44.313Z,0
2016-09-13T00:16:43.984Z,0
2016-09-13T00:17:43.965Z,0
2016-09-13T00:18:43.619Z,0
2016-09-13T00:19:43.884Z,0
2016-09-13T00:20:43.558Z,0
2016-09-13T00:21:43.823Z,0
2016-09-13T00:22:43.788Z,0
2016-09-13T00:23:43.465Z,0
2016-09-13T00:24:43.731Z,0
2016-09-13T00:25:43.395Z,0
2016-09-13T00:26:43.361Z,0
2016-09-13T00:27:43.037Z,0
2016-09-13T00:28:43.623Z,0
2016-09-13T00:29:43.266Z,0
2016-09-13T00:30:43.545Z,0
2016-09-13T00:31:43.510Z,0
2016-09-13T00:32:43.471Z,0
2016-09-13T00:33:43.154Z,0
2016-09-13T00:34:43.718Z,0
2016-09-13T00:35:43.388Z,0
2016-09-13T00:36:43.352Z,0
2016-09-13T00:37:43.319Z,0
2016-09-13T00:38:43.289Z,0
2016-09-13T00:39:42.652Z,0
2016-09-13T00:40:43.524Z,0
2016-09-13T00:41:42.894Z,0
2016-09-13T00:42:42.559Z,0
2016-09-13T00:43:42.837Z,0
2016-09-13T00:44:43.107Z,0
2016-09-13T00:45:43.377Z,0
2016-09-13T00:46:43.051Z,0
2016-09-13T00:47:43.014Z,0
2016-09-13T00:48:42.988Z,0
2016-09-13T00:49:42.955Z,0
2016-09-13T00:50:43.214Z,0
2016-09-13T00:51:42.886Z,0
2016-09-13T00:52:42.557Z,0
2016-09-13T00:53:42.823Z,0
2016-09-13T00:54:42.797Z,0
2016-09-13T00:55:43.062Z,0
2016-09-13T00:56:43.040Z,0
2016-09-13T00:57:43.008Z,0
2016-09-13T00:58:42.671Z,0
2016-09-13T00:59:42.941Z,0
2016-09-13T01:00:42.302Z,0
2016-09-13T01:01:42.885Z,0
2016-09-13T01:02:42.851Z,0
2016-09-13T01:03:42.819Z,0
2016-09-13T01:04:42.187Z,0
2016-09-13T01:05:42.448Z,0
2016-09-13T01:06:42.125Z,0
2016-09-13T01:07:42.692Z,0
2016-09-13T01:08:42.663Z,0
2016-09-13T01:09:42.644Z,0
2016-09-13T01:10:42.006Z,0
2016-09-13T01:11:41.657Z,0
2016-09-13T01:12:42.231Z,0
2016-09-13T01:13:42.503Z,0
2016-09-13T01:14:42.167Z,0
2016-09-13T01:15:42.439Z,0
2016-09-13T01:16:42.108Z,0
2016-09-13T01:17:41.785Z,0
2016-09-13T01:18:42.050Z,0
2016-09-13T01:19:42.089Z,0
2016-09-13T01:20:41.983Z,0
2016-09-13T01:21:41.969Z,0
2016-09-13T01:22:41.614Z,0
2016-09-13T01:23:41.883Z,0
2016-09-13T01:24:41.856Z,0
2016-09-13T01:25:42.136Z,0
2016-09-13T01:26:41.792Z,0
2016-09-13T01:27:41.768Z,0
2016-09-13T01:28:42.028Z,0
2016-09-13T01:29:41.397Z,0
2016-09-13T01:30:41.664Z,0
2016-09-13T01:31:41.630Z,0
2016-09-13T01:32:41.600Z,0
2016-09-13T01:33:41.579Z,0
2016-09-13T01:34:41.544Z,0
2016-09-13T01:35:41.808Z,0
2016-09-13T01:36:41.475Z,0
2016-09-13T01:37:41.438Z,0
2016-09-13T01:38:41.414Z,0
2016-09-13T01:39:41.094Z,0
2016-09-13T01:40:41.054Z,0
2016-09-13T01:41:41.317Z,0
2016-09-13T01:42:41.284Z,0
2016-09-13T01:43:41.254Z,0
2016-09-13T01:44:41.520Z,0
2016-09-13T01:45:41.192Z,0
2016-09-13T01:46:41.457Z,0
2016-09-13T01:47:40.819Z,0
2016-09-13T01:48:41.109Z,0
2016-09-13T01:49:41.374Z,0
2016-09-13T01:50:41.032Z,0
2016-09-13T01:51:40.996Z,0
2016-09-13T01:52:40.656Z,0
2016-09-13T01:53:40.930Z,0
2016-09-13T01:54:40.601Z,0
2016-09-13T01:55:41.172Z,0
2016-09-13T01:56:40.235Z,0
2016-09-13T01:57:40.496Z,0
2016-09-13T01:58:40.777Z,0
2016-09-13T01:59:40.743Z,0
2016-09-13T02:00:40.405Z,0
2016-09-13T02:01:40.986Z,0
2016-09-13T02:02:40.339Z,0
2016-09-13T02:03:40.314Z,0
2016-09-13T02:04:40.576Z,0
2016-09-13T02:05:40.247Z,0
2016-09-13T02:06:40.517Z,0
2016-09-13T02:07:40.484Z,0
2016-09-13T02:08:40.453Z,0
2016-09-13T02:09:40.415Z,0
2016-09-13T02:10:40.392Z,0
2016-09-13T02:11:40.056Z,0
2016-09-13T02:12:40.321Z,0
2016-09-13T02:13:39.691Z,0
2016-09-13T02:14:39.952Z,0
2016-09-13T02:15:40.221Z,0
2016-09-13T02:16:39.897Z,0
2016-09-13T02:17:40.164Z,0
2016-09-13T02:18:40.435Z,0
2016-09-13T02:19:39.795Z,0
2016-09-13T02:20:40.069Z,0
2016-09-13T02:21:39.735Z,0
2016-09-13T02:22:40.306Z,0
2016-09-13T02:23:40.290Z,0
2016-09-13T02:24:39.653Z,0
2016-09-13T02:25:39.901Z,0
2016-09-13T02:26:39.879Z,0
2016-09-13T02:27:39.863Z,0
2016-09-13T02:28:39.814Z,0
2016-09-13T02:29:39.777Z,0
2016-09-13T02:30:39.742Z,0
2016-09-13T02:31:39.416Z,0
2016-09-13T02:32:39.978Z,0
2016-09-13T02:33:39.650Z,0
2016-09-13T02:34:39.621Z,0
2016-09-13T02:35:39.582Z,0
2016-09-13T02:36:39.850Z,0
2016-09-13T02:37:39.534Z,0
2016-09-13T02:38:39.485Z,0
2016-09-13T02:39:39.454Z,0
2016-09-13T02:40:39.420Z,0
2016-09-13T02:41:39.092Z,0
2016-09-13T02:42:39.660Z,0
2016-09-13T02:43:38.710Z,0
2016-09-13T02:44:39.594Z,0
2016-09-13T02:45:39.258Z,0
2016-09-13T02:46:39.531Z,0
2016-09-13T02:47:39.190Z,0
2016-09-13T02:48:39.169Z,0
2016-09-13T02:49:39.123Z,0
2016-09-13T02:50:39.100Z,0
2016-09-13T02:51:39.366Z,0
2016-09-13T02:52:39.328Z,0
2016-09-13T02:53:39.305Z,0
2016-09-13T02:54:39.275Z,0
2016-09-13T02:55:38.940Z,0
2016-09-13T02:56:38.603Z,0
2016-09-13T02:57:38.873Z,0
2016-09-13T02:58:38.839Z,0
2016-09-13T02:59:38.503Z,0
2016-09-13T03:00:39.069Z,0
2016-09-13T03:01:38.440Z,0
2016-09-13T03:02:39.018Z,0
2016-09-13T03:03:38.676Z,0
2016-09-13T03:04:38.649Z,0
2016-09-13T03:05:38.913Z,0
2016-09-13T03:06:38.592Z,0
2016-09-13T03:07:38.845Z,0
2016-09-13T03:08:38.513Z,0
2016-09-13T03:09:38.185Z,0
2016-09-13T03:10:38.749Z,0
2016-09-13T03:11:38.718Z,0
2016-09-13T03:12:38.696Z,0
2016-09-13T03:13:38.353Z,0
2016-09-13T03:14:38.618Z,0
2016-09-13T03:15:38.592Z,0
2016-09-13T03:16:38.255Z,0
2016-09-13T03:17:38.520Z,0
2016-09-13T03:18:38.189Z,0
2016-09-13T03:19:38.155Z,0
2016-09-13T03:20:38.126Z,0
2016-09-13T03:21:38.098Z,0
2016-09-13T03:22:38.371Z,0
2016-09-13T03:23:37.727Z,0
2016-09-13T03:24:37.988Z,0
2016-09-13T03:25:37.966Z,0
2016-09-13T03:26:38.229Z,0
2016-09-13T03:27:37.888Z,0
2016-09-13T03:28:38.166Z,0
2016-09-13T03:29:37.831Z,0
2016-09-13T03:30:37.504Z,0
2016-09-13T03:31:37.469Z,0
2016-09-13T03:32:38.033Z,0
2016-09-13T03:33:37.720Z,0
2016-09-13T03:34:37.377Z,0
2016-09-13T03:35:37.933Z,0
2016-09-13T03:36:37.605Z,0
2016-09-13T03:37:37.567Z,0
2016-09-13T03:38:37.232Z,0
2016-09-13T03:39:36.898Z,0
2016-09-13T03:40:37.773Z,0
2016-09-13T03:41:37.137Z,0
2016-09-13T03:42:37.099Z,0
2016-09-13T03:43:37.064Z,0
2016-09-13T03:44:36.733Z,0
2016-09-13T03:45:37.601Z,0
2016-09-13T03:46:37.572Z,0
2016-09-13T03:47:36.941Z,0
2016-09-13T03:48:37.209Z,0
2016-09-13T03:49:36.568Z,0
2016-09-13T03:50:36.541Z,0
2016-09-13T03:51:37.108Z,0
2016-09-13T03:52:36.463Z,0
2016-09-13T03:53:37.355Z,0
2016-09-13T03:54:37.013Z,0
2016-09-13T03:55:37.292Z,0
2016-09-13T03:56:37.242Z,0
2016-09-13T03:57:36.910Z,0
2016-09-13T03:58:37.190Z,0
2016-09-13T03:59:36.846Z,0
2016-09-13T04:00:36.825Z,0
2016-09-13T04:01:36.472Z,0
2016-09-13T04:02:36.446Z,0
2016-09-13T04:03:36.110Z,0
2016-09-13T04:04:36.680Z,0
2016-09-13T04:05:36.651Z,0
2016-09-13T04:06:36.609Z,0
2016-09-13T04:07:36.277Z,0
2016-09-13T04:08:35.942Z,0
2016-09-13T04:09:36.519Z,0
2016-09-13T04:10:36.792Z,0
2016-09-13T04:11:36.753Z,0
2016-09-13T04:12:36.419Z,0
2016-09-13T04:13:36.682Z,0
2016-09-13T04:14:36.350Z,0
2016-09-13T04:15:36.636Z,0
2016-09-13T04:16:36.282Z,0
2016-09-13T04:17:36.257Z,0
2016-09-13T04:18:36.516Z,0
2016-09-13T04:19:36.186Z,0
2016-09-13T04:20:36.452Z,0
2016-09-13T04:21:36.124Z,0
2016-09-13T04:22:36.387Z,0
2016-09-13T04:23:36.057Z,0
2016-09-13T04:24:36.324Z,0
2016-09-13T04:25:35.985Z,0
2016-09-13T04:26:35.960Z,0
2016-09-13T04:27:35.928Z,0
2016-09-13T04:28:35.892Z,0
2016-09-13T04:29:35.861Z,0
2016-09-13T04:30:35.825Z,0
2016-09-13T04:31:36.097Z,0
2016-09-13T04:32:36.052Z,0
2016-09-13T04:33:36.024Z,0
2016-09-13T04:34:35.399Z,0
2016-09-13T04:35:35.658Z,0
2016-09-13T04:36:35.931Z,0
2016-09-13T04:37:35.284Z,0
2016-09-13T04:38:35.563Z,0
2016-09-13T04:39:35.521Z,0
2016-09-13T04:40:35.793Z,0
2016-09-13T04:41:35.154Z,0
2016-09-13T04:42:35.723Z,0
2016-09-13T04:43:35.088Z,0
2016-09-13T04:44:35.359Z,0
2016-09-13T04:45:35.326Z,0
2016-09-13T04:46:35.289Z,0
2016-09-13T04:47:35.263Z,0
2016-09-13T04:48:35.536Z,0
2016-09-13T04:49:35.493Z,0
2016-09-13T04:50:35.171Z,5
2016-09-13T04:51:34.815Z,5
2016-09-13T04:52:34.797Z,5
2016-09-13T04:53:35.058Z,5
2016-09-13T04:54:35.028Z,5
2016-09-13T04:55:34.996Z,5
2016-09-13T04:56:34.661Z,10
2016-09-13T04:57:34.926Z,10
2016-09-13T04:58:35.192Z,10
2016-09-13T04:59:34.556Z,10
2016-09-13T05:00:35.127Z,15
2016-09-13T05:01:34.794Z,15
2016-09-13T05:02:34.456Z,15
2016-09-13T05:03:34.722Z,15
2016-09-13T05:04:35.001Z,20
2016-09-13T05:05:34.667Z,20
2016-09-13T05:06:34.638Z,25
2016-09-13T05:07:34.601Z,25
2016-09-13T05:08:34.562Z,25
2016-09-13T05:09:34.520Z,30
2016-09-13T05:10:34.185Z,30
2016-09-13T05:11:34.157Z,35
2016-09-13T05:12:34.433Z,35
2016-09-13T05:13:34.694Z,35
2016-09-13T05:14:34.364Z,35
2016-09-13T05:15:34.031Z,40
2016-09-13T05:16:34.293Z,40
2016-09-13T05:17:33.960Z,45
2016-09-13T05:18:33.932Z,45
2016-09-13T05:19:34.197Z,50
2016-09-13T05:20:34.474Z,50
2016-09-13T05:21:34.139Z,55
2016-09-13T05:22:34.104Z,60
2016-09-13T05:23:34.374Z,60
2016-09-13T05:24:34.338Z,65
2016-09-13T05:25:34.012Z,80
2016-09-13T05:26:33.978Z,95
2016-09-13T05:27:34.238Z,110
2016-09-13T05:28:33.905Z,115
2016-09-13T05:29:33.563Z,120
2016-09-13T05:30:34.154Z,130
2016-09-13T05:31:33.495Z,135
2016-09-13T05:32:33.473Z,140
2016-09-13T05:33:33.431Z,150
2016-09-13T05:34:33.713Z,160
2016-09-13T05:35:33.373Z,165
2016-09-13T05:36:33.637Z,175
2016-09-13T05:37:33.615Z,180
2016-09-13T05:38:33.882Z,175
2016-09-13T05:39:33.556Z,175
2016-09-13T05:40:33.513Z,185
2016-09-13T05:41:33.482Z,185
2016-09-13T05:42:33.445Z,180
2016-09-13T05:43:33.723Z,180
2016-09-13T05:44:33.688Z,195
2016-09-13T05:45:33.355Z,220
2016-09-13T05:46:33.319Z,245
2016-09-13T05:47:33.291Z,260
2016-09-13T05:48:33.270Z,280
2016-09-13T05:49:33.230Z,290
2016-09-13T05:50:33.207Z,300
2016-09-13T05:51:32.866Z,310
2016-09-13T05:52:32.836Z,310
2016-09-13T05:53:33.101Z,320
2016-09-13T05:54:32.774Z,325
2016-09-13T05:55:32.743Z,335
2016-09-13T05:56:32.424Z,345
2016-09-13T05:57:32.684Z,360
2016-09-13T05:58:32.964Z,370
2016-09-13T05:59:32.923Z,380
2016-09-13T06:00:33.205Z,390
2016-09-13T06:01:32.577Z,405
2016-09-13T06:02:33.141Z,415
2016-09-13T06:03:32.503Z,430
2016-09-13T06:04:33.083Z,430
2016-09-13T06:05:32.750Z,445
2016-09-13T06:06:33.024Z,450
2016-09-13T06:07:32.393Z,460
2016-09-13T06:08:32.662Z,475
2016-09-13T06:09:33.107Z,485
2016-09-13T06:10:32.915Z,495
2016-09-13T06:11:31.978Z,500
2016-09-13T06:12:32.861Z,495
2016-09-13T06:13:32.834Z,520
2016-09-13T06:14:32.810Z,530
2016-09-13T06:15:32.478Z,540
2016-09-13T06:16:32.753Z,545
2016-09-13T06:17:32.416Z,540
2016-09-13T06:18:32.392Z,540
2016-09-13T06:19:32.359Z,560
2016-09-13T06:20:32.039Z,560
2016-09-13T06:21:32.306Z,580
2016-09-13T06:22:32.592Z,610
2016-09-13T06:23:32.265Z,620
2016-09-13T06:24:32.539Z,635
2016-09-13T06:25:31.915Z,640
2016-09-13T06:26:32.187Z,660
2016-09-13T06:27:32.158Z,660
2016-09-13T06:28:31.838Z,670
2016-09-13T06:29:32.417Z,680
2016-09-13T06:30:32.085Z,680
2016-09-13T06:31:32.051Z,690
2016-09-13T06:32:32.328Z,665
2016-09-13T06:33:32.009Z,685
2016-09-13T06:34:31.674Z,725
2016-09-13T06:35:32.257Z,730
2016-09-13T06:36:31.941Z,740
2016-09-13T06:37:31.912Z,755
2016-09-13T06:38:32.195Z,765
2016-09-13T06:39:32.161Z,775
2016-09-13T06:40:31.840Z,780
2016-09-13T06:41:31.815Z,790
2016-09-13T06:42:31.788Z,800
2016-09-13T06:43:31.759Z,810
2016-09-13T06:44:32.049Z,815
2016-09-13T06:45:31.710Z,820
2016-09-13T06:46:31.090Z,830
2016-09-13T06:47:31.676Z,840
2016-09-13T06:48:31.643Z,840
2016-09-13T06:49:31.623Z,825
2016-09-13T06:50:31.291Z,820
2016-09-13T06:51:31.578Z,810
2016-09-13T06:52:30.941Z,800
2016-09-13T06:53:30.639Z,790
2016-09-13T06:54:31.501Z,780
2016-09-13T06:55:31.489Z,785
2016-09-13T06:56:31.779Z,795
2016-09-13T06:57:31.443Z,795
2016-09-13T06:58:31.414Z,800
2016-09-13T06:59:31.102Z,810
2016-09-13T07:00:31.074Z,825
2016-09-13T07:01:31.655Z,825
2016-09-13T07:02:30.740Z,825
2016-09-13T07:03:31.302Z,830
2016-09-13T07:04:31.590Z,840
2016-09-13T07:05:30.964Z,845
2016-09-13T07:06:31.248Z,850
2016-09-13T07:07:30.923Z,860
2016-09-13T07:08:30.901Z,860
2016-09-13T07:09:31.487Z,865
2016-09-13T07:10:31.159Z,895
2016-09-13T07:11:31.145Z,940
2016-09-13T07:12:30.816Z,985
2016-09-13T07:13:31.096Z,1005
2016-09-13T07:14:31.076Z,1035
2016-09-13T07:15:31.358Z,1065
2016-09-13T07:16:31.039Z,1095
2016-09-13T07:17:31.030Z,1130
2016-09-13T07:18:30.386Z,1150
2016-09-13T07:19:31.280Z,1175
2016-09-13T07:20:30.953Z,1200
2016-09-13T07:21:31.236Z,1235
2016-09-13T07:22:30.908Z,1265
2016-09-13T07:23:30.902Z,1305
2016-09-13T07:24:30.572Z,1315
2016-09-13T07:25:30.256Z,1315
2016-09-13T07:26:30.532Z,1320
2016-09-13T07:27:30.517Z,1325
2016-09-13T07:28:30.500Z,1340
2016-09-13T07:29:30.773Z,1355
2016-09-13T07:30:30.456Z,1385
2016-09-13T07:31:30.739Z,1360
2016-09-13T07:32:30.413Z,1385
2016-09-13T07:33:30.998Z,1390
2016-09-13T07:34:30.679Z,1410
2016-09-13T07:35:30.361Z,1420
2016-09-13T07:36:30.947Z,1445
2016-09-13T07:37:30.939Z,1465
2016-09-13T07:38:30.906Z,1475
2016-09-13T07:39:30.284Z,1465
2016-09-13T07:40:30.275Z,1465
2016-09-13T07:41:30.856Z,1455
2016-09-13T07:42:30.831Z,1470
2016-09-13T07:43:30.817Z,1485
2016-09-13T07:44:30.806Z,1500
2016-09-13T07:45:30.471Z,1510
2016-09-13T07:46:30.761Z,1550
2016-09-13T07:47:30.141Z,1570
2016-09-13T07:48:30.419Z,1565
2016-09-13T07:49:30.100Z,1575
2016-09-13T07:50:30.387Z,1585
2016-09-13T07:51:30.668Z,1620
2016-09-13T07:52:30.045Z,1610
2016-09-13T07:53:30.338Z,1605
2016-09-13T07:54:30.614Z,1630
2016-09-13T07:55:29.690Z,1610
2016-09-13T07:56:30.577Z,1645
2016-09-13T07:57:29.962Z,1660
2016-09-13T07:58:30.557Z,1675
2016-09-13T07:59:30.228Z,1685
2016-09-13T08:00:29.901Z,1690
2016-09-13T08:01:30.191Z,1730
2016-09-13T08:02:30.170Z,1730
2016-09-13T08:03:29.857Z,1725
2016-09-13T08:04:29.838Z,1755
2016-09-13T08:05:30.108Z,1765
2016-09-13T08:06:30.400Z,1745
2016-09-13T08:07:30.074Z,1765
2016-09-13T08:08:30.357Z,1785
2016-09-13T08:09:30.054Z,1800
2016-09-13T08:10:30.020Z,1810
2016-09-13T08:11:29.722Z,1795
2016-09-13T08:12:29.376Z,1795
2016-09-13T08:13:30.283Z,1775
2016-09-13T08:14:29.343Z,1845
2016-09-13T08:15:29.944Z,1905
2016-09-13T08:16:29.911Z,1860
2016-09-13T08:17:30.188Z,1840
2016-09-13T08:18:29.564Z,1815
2016-09-13T08:19:29.562Z,1845
2016-09-13T08:20:29.836Z,1875
2016-09-13T08:21:29.818Z,1875
2016-09-13T08:22:30.112Z,1850
2016-09-13T08:23:30.088Z,1835
2016-09-13T08:24:29.459Z,1855
2016-09-13T08:25:29.740Z,1885
2016-09-13T08:26:30.037Z,1930
2016-09-13T08:27:29.103Z,1900
2016-09-13T08:28:29.691Z,1875
2016-09-13T08:29:29.368Z,1860
2016-09-13T08:30:29.663Z,1905
2016-09-13T08:31:29.336Z,1930
2016-09-13T08:32:29.616Z,1940
2016-09-13T08:33:29.902Z,1950
2016-09-13T08:34:29.576Z,1970
2016-09-13T08:35:29.867Z,1945
2016-09-13T08:36:29.246Z,1980
2016-09-13T08:37:29.522Z,2000
2016-09-13T08:38:29.507Z,1995
2016-09-13T08:39:29.797Z,1990
2016-09-13T08:40:29.164Z,2060
2016-09-13T08:41:29.156Z,2095
2016-09-13T08:42:29.746Z,2045
2016-09-13T08:43:29.421Z,1995
2016-09-13T08:44:29.096Z,1950
2016-09-13T08:45:29.692Z,1965
2016-09-13T08:46:29.364Z,2015
2016-09-13T08:47:29.649Z,1960
2016-09-13T08:48:29.033Z,1945
2016-09-13T08:49:29.314Z,1980
2016-09-13T08:50:29.603Z,1925
2016-09-13T08:51:29.280Z,1835
2016-09-13T08:52:29.276Z,1850
2016-09-13T08:53:29.565Z,1975
2016-09-13T08:54:28.919Z,1910
2016-09-13T08:55:29.219Z,1855
2016-09-13T08:56:29.497Z,1800
2016-09-13T08:57:29.184Z,1815
2016-09-13T08:58:28.854Z,1835
2016-09-13T08:59:29.149Z,1880
2016-09-13T09:00:28.827Z,1945
2016-09-13T09:01:29.114Z,2075
2016-09-13T09:02:29.098Z,2095
2016-09-13T09:03:28.763Z,2045
2016-09-13T09:04:28.760Z,2015
2016-09-13T09:05:29.034Z,2070
2016-09-13T09:06:29.039Z,2075
2016-09-13T09:07:28.404Z,2085
2016-09-13T09:08:28.695Z,2050
2016-09-13T09:09:29.286Z,2100
2016-09-13T09:10:28.956Z,2130
2016-09-13T09:11:28.340Z,2105
2016-09-13T09:12:29.229Z,2095
2016-09-13T09:13:28.911Z,2100
2016-09-13T09:14:29.199Z,2120
2016-09-13T09:15:28.895Z,2145
2016-09-13T09:16:28.859Z,2125
2016-09-13T09:17:28.853Z,2105
2016-09-13T09:18:29.132Z,2095
2016-09-13T09:19:29.119Z,1995
2016-09-13T09:20:29.118Z,1930
2016-09-13T09:21:29.090Z,2075
2016-09-13T09:22:28.461Z,2085
2016-09-13T09:23:28.747Z,2035
2016-09-13T09:24:28.730Z,2055
2016-09-13T09:25:28.715Z,2085
2016-09-13T09:26:29.001Z,2045
2016-09-13T09:27:27.782Z,2015
2016-09-13T09:28:28.974Z,2025
2016-09-13T09:29:28.960Z,2000
2016-09-13T09:30:28.634Z,1955
2016-09-13T09:31:28.619Z,1965
2016-09-13T09:32:28.296Z,2035
2016-09-13T09:33:28.895Z,2105
2016-09-13T09:34:28.270Z,2175
2016-09-13T09:35:28.555Z,2210
2016-09-13T09:36:28.556Z,2235
2016-09-13T09:37:27.627Z,2205
2016-09-13T09:38:28.207Z,2215
2016-09-13T09:39:28.489Z,2280
2016-09-13T09:40:28.482Z,2260
2016-09-13T09:41:28.460Z,2320
2016-09-13T09:42:28.453Z,2320
2016-09-13T09:43:28.126Z,2285
2016-09-13T09:44:28.716Z,2150
2016-09-13T09:45:28.701Z,1540
2016-09-13T09:46:28.388Z,1145
2016-09-13T09:47:28.371Z,1110
2016-09-13T09:48:28.053Z,1110
2016-09-13T09:49:28.651Z,1120
2016-09-13T09:50:28.321Z,1135
2016-09-13T09:51:28.312Z,1140
2016-09-13T09:52:28.294Z,1175
2016-09-13T09:53:28.585Z,1155
2016-09-13T09:54:27.963Z,1140
2016-09-13T09:55:28.258Z,1170
2016-09-13T09:56:28.242Z,1130
2016-09-13T09:57:28.529Z,1130
2016-09-13T09:58:28.217Z,1115
2016-09-13T09:59:27.893Z,1075
2016-09-13T10:00:28.477Z,1060
2016-09-13T10:01:28.461Z,1035
2016-09-13T10:02:27.844Z,1025
2016-09-13T10:03:27.843Z,1045
2016-09-13T10:04:28.413Z,1075
2016-09-13T10:05:28.097Z,1070
2016-09-13T10:06:27.781Z,1050
2016-09-13T10:07:27.773Z,1060
2016-09-13T10:08:28.352Z,1045
2016-09-13T10:09:28.340Z,1125
2016-09-13T10:10:27.441Z,1840
2016-09-13T10:11:27.703Z,2405
2016-09-13T10:12:27.994Z,2365
2016-09-13T10:13:27.678Z,2165
2016-09-13T10:14:27.978Z,2130
2016-09-13T10:15:27.661Z,2345
2016-09-13T10:16:27.932Z,2445
2016-09-13T10:17:28.220Z,2495
2016-09-13T10:18:27.608Z,2500
2016-09-13T10:19:27.596Z,2500
2016-09-13T10:20:28.173Z,2615
2016-09-13T10:21:27.554Z,2605
2016-09-13T10:22:27.851Z,2495
2016-09-13T10:23:27.831Z,2495
2016-09-13T10:24:27.809Z,2485
2016-09-13T10:25:28.105Z,2495
2016-09-13T10:26:27.787Z,2540
2016-09-13T10:27:28.065Z,2555
2016-09-13T10:28:27.752Z,2535
2016-09-13T10:29:27.432Z,2575
2016-09-13T10:30:28.027Z,2600
2016-09-13T10:31:27.406Z,2565
2016-09-13T10:32:27.703Z,2510
2016-09-13T10:33:27.683Z,2515
2016-09-13T10:34:27.973Z,2490
2016-09-13T10:35:27.955Z,2510
2016-09-13T10:36:27.032Z,2550
2016-09-13T10:37:27.917Z,2560
2016-09-13T10:38:27.379Z,2545
2016-09-13T10:39:27.282Z,2410
2016-09-13T10:40:27.563Z,2515
2016-09-13T10:41:27.864Z,2625
2016-09-13T10:42:27.543Z,2635
2016-09-13T10:43:27.523Z,2505
2016-09-13T10:44:27.804Z,2520
2016-09-13T10:45:27.498Z,2510
2016-09-13T10:46:27.477Z,1765
2016-09-13T10:47:27.749Z,1060
2016-09-13T10:48:27.455Z,910
2016-09-13T10:49:27.423Z,770
2016-09-13T10:50:27.704Z,735
2016-09-13T10:51:27.390Z,780
2016-09-13T10:52:27.068Z,820
2016-09-13T10:53:27.350Z,825
2016-09-13T10:54:27.034Z,765
2016-09-13T10:55:27.016Z,685
2016-09-13T10:56:26.695Z,670
2016-09-13T10:57:27.586Z,680
2016-09-13T10:58:27.564Z,690
2016-09-13T10:59:27.298Z,815
2016-09-13T11:00:27.543Z,995
2016-09-13T11:01:26.911Z,950
2016-09-13T11:02:27.502Z,775
2016-09-13T11:03:27.480Z,950
2016-09-13T11:04:27.158Z,1965
2016-09-13T11:05:26.839Z,2340
2016-09-13T11:06:27.122Z,2330
2016-09-13T11:07:27.411Z,2300
2016-09-13T11:08:27.093Z,2335
2016-09-13T11:09:27.367Z,2255
2016-09-13T11:10:27.361Z,2140
2016-09-13T11:11:27.036Z,2235
2016-09-13T11:12:27.012Z,2180
2016-09-13T11:13:26.694Z,1545
2016-09-13T11:14:27.277Z,635
2016-09-13T11:15:26.973Z,485
2016-09-13T11:16:26.942Z,465
2016-09-13T11:17:26.318Z,455
2016-09-13T11:18:26.901Z,445
2016-09-13T11:19:26.879Z,440
2016-09-13T11:20:26.864Z,425
2016-09-13T11:21:26.841Z,395
2016-09-13T11:22:27.124Z,385
2016-09-13T11:23:26.499Z,380
2016-09-13T11:24:26.783Z,385
2016-09-13T11:25:26.761Z,425
2016-09-13T11:26:27.046Z,975
2016-09-13T11:27:27.024Z,820
2016-09-13T11:28:26.103Z,330
2016-09-13T11:29:26.986Z,320
2016-09-13T11:30:26.659Z,315
2016-09-13T11:31:26.643Z,310
2016-09-13T11:32:26.309Z,305
2016-09-13T11:33:26.289Z,300
2016-09-13T11:34:26.578Z,295
2016-09-13T11:35:26.867Z,285
2016-09-13T11:36:26.222Z,280
2016-09-13T11:37:26.516Z,270
2016-09-13T11:38:26.486Z,255
2016-09-13T11:39:26.470Z,245
2016-09-13T11:40:26.738Z,235
2016-09-13T11:41:26.428Z,225
2016-09-13T11:42:25.794Z,220
2016-09-13T11:43:26.077Z,220
2016-09-13T11:44:26.675Z,215
2016-09-13T11:45:25.417Z,215
2016-09-13T11:46:25.710Z,215
2016-09-13T11:47:26.592Z,215
2016-09-13T11:48:25.652Z,215
2016-09-13T11:49:26.232Z,210
2016-09-13T11:50:25.912Z,210
2016-09-13T11:51:25.889Z,210
2016-09-13T11:52:25.860Z,210
2016-09-13T11:53:26.449Z,210
2016-09-13T11:54:26.419Z,205
2016-09-13T11:55:25.800Z,205
2016-09-13T11:56:26.087Z,205
2016-09-13T11:57:26.364Z,205
2016-09-13T11:58:26.023Z,205
2016-09-13T11:59:26.306Z,205
2016-09-13T12:00:25.973Z,200
2016-09-13T12:01:25.645Z,200
2016-09-13T12:02:25.311Z,200
2016-09-13T12:03:26.202Z,200
2016-09-13T12:04:25.877Z,200
2016-09-13T12:05:26.155Z,200
2016-09-13T12:06:25.518Z,200
2016-09-13T12:07:25.495Z,195
2016-09-13T12:08:25.771Z,195
2016-09-13T12:09:25.446Z,195
2016-09-13T12:10:25.723Z,195
2016-09-13T12:11:25.394Z,195
2016-09-13T12:12:25.664Z,195
2016-09-13T12:13:25.643Z,195
2016-09-13T12:14:25.617Z,195
2016-09-13T12:15:25.899Z,190
2016-09-13T12:16:25.565Z,190
2016-09-13T12:17:25.244Z,190
2016-09-13T12:18:25.821Z,190
2016-09-13T12:19:25.496Z,190
2016-09-13T12:20:25.170Z,190
2016-09-13T12:21:25.747Z,190
2016-09-13T12:22:25.415Z,190
2016-09-13T12:23:25.695Z,185
2016-09-13T12:24:25.370Z,185
2016-09-13T12:25:25.341Z,185
2016-09-13T12:26:25.316Z,185
2016-09-13T12:27:25.590Z,185
2016-09-13T12:28:25.271Z,185
2016-09-13T12:29:25.228Z,185
2016-09-13T12:30:25.516Z,185
2016-09-13T12:31:25.182Z,180
2016-09-13T12:32:24.862Z,180
2016-09-13T12:33:25.145Z,180
2016-09-13T12:34:25.108Z,180
2016-09-13T12:35:25.083Z,180
2016-09-13T12:36:25.076Z,180
2016-09-13T12:37:25.329Z,180
2016-09-13T12:38:24.702Z,180
2016-09-13T12:39:24.994Z,175
2016-09-13T12:40:24.667Z,180
2016-09-13T12:41:25.237Z,175
2016-09-13T12:42:24.599Z,175
2016-09-13T12:43:24.875Z,175
2016-09-13T12:44:25.143Z,175
2016-09-13T12:45:24.522Z,175
2016-09-13T12:46:24.506Z,175
2016-09-13T12:47:25.089Z,170
2016-09-13T12:48:25.045Z,170
2016-09-13T12:49:24.722Z,170
2016-09-13T12:50:24.090Z,170
2016-09-13T12:51:24.069Z,170
2016-09-13T12:52:24.339Z,170
2016-09-13T12:53:24.938Z,170
2016-09-13T12:54:24.297Z,170
2016-09-13T12:55:24.262Z,165
2016-09-13T12:56:24.237Z,165
2016-09-13T12:57:24.515Z,165
2016-09-13T12:58:24.493Z,165
2016-09-13T12:59:24.463Z,165
2016-09-13T13:00:24.130Z,165
2016-09-13T13:01:24.420Z,165
2016-09-13T13:02:24.387Z,165
2016-09-13T13:03:24.358Z,165
2016-09-13T13:04:24.333Z,165
2016-09-13T13:05:24.309Z,160
2016-09-13T13:06:24.589Z,160
2016-09-13T13:07:24.247Z,160
2016-09-13T13:08:23.931Z,160
2016-09-13T13:09:24.199Z,160
2016-09-13T13:10:23.879Z,160
2016-09-13T13:11:24.152Z,160
2016-09-13T13:12:23.824Z,160
2016-09-13T13:13:24.408Z,160
2016-09-13T13:14:24.391Z,160
2016-09-13T13:15:24.044Z,160
2016-09-13T13:16:23.725Z,160
2016-09-13T13:17:23.100Z,160
2016-09-13T13:18:23.668Z,155
2016-09-13T13:19:24.242Z,155
2016-09-13T13:20:23.919Z,155
2016-09-13T13:21:23.888Z,155
2016-09-13T13:22:23.263Z,155
2016-09-13T13:23:24.140Z,155
2016-09-13T13:24:23.514Z,155
2016-09-13T13:25:23.792Z,155
2016-09-13T13:26:24.066Z,155
2016-09-13T13:27:23.436Z,155
2016-09-13T13:28:23.709Z,150
2016-09-13T13:29:23.683Z,150
2016-09-13T13:30:23.970Z,150
2016-09-13T13:31:23.640Z,150
2016-09-13T13:32:23.612Z,150
2016-09-13T13:33:23.886Z,150
2016-09-13T13:34:23.561Z,150
2016-09-13T13:35:23.828Z,150
2016-09-13T13:36:23.514Z,150
2016-09-13T13:37:23.788Z,150
2016-09-13T13:38:23.770Z,150
2016-09-13T13:39:23.430Z,150
2016-09-13T13:40:23.113Z,145
2016-09-13T13:41:23.375Z,145
2016-09-13T13:42:23.349Z,145
2016-09-13T13:43:22.726Z,145
2016-09-13T13:44:23.614Z,145
2016-09-13T13:45:23.583Z,145
2016-09-13T13:46:23.250Z,145
2016-09-13T13:47:23.214Z,145
2016-09-13T13:48:22.904Z,145
2016-09-13T13:49:23.160Z,145
2016-09-13T13:50:22.843Z,145
2016-09-13T13:51:22.822Z,145
2016-09-13T13:52:23.092Z,145
2016-09-13T13:53:23.065Z,140
2016-09-13T13:54:23.351Z,140
2016-09-13T13:55:23.017Z,140
2016-09-13T13:56:23.278Z,140
2016-09-13T13:57:23.268Z,140
2016-09-13T13:58:23.242Z,140
2016-09-13T13:59:22.618Z,140